< Typhoon 197910 1979 Season Typhoon 197912 >
Typhoon 197911 (JUDY)
General InformationTrack Information on Google MapsDetailed Wind InformationList of All Images || Disaster Info.ResourceGoogle EarthGE AnimationAtom FeedGeoJSON
Detalied Best Track (Time Zone = UTC)
Year Month Day Hour Lat. Long. Pressure (hPa) Wind (kt) Class Image Chart
1979 8 16 00 12.0 148.0 1006 0 2 Image Chart
1979 8 16 06 12.5 146.8 1006 0 2 Image Chart
1979 8 16 12 13.0 145.7 1004 0 2 Image Chart
1979 8 16 18 13.4 144.4 1000 0 2 Image Chart
1979 8 17 00 13.8 143.2 998 40 3 Image Chart
1979 8 17 06 14.2 142.2 994 40 3 Image Chart
1979 8 17 12 14.7 141.2 990 45 3 Image Chart
1979 8 17 18 15.1 139.9 985 50 4 Image Chart
1979 8 18 00 15.6 138.9 985 55 4 Image Chart
1979 8 18 06 16.3 138.2 965 60 4 Image Chart
1979 8 18 12 16.8 137.5 945 70 5 Image Chart
1979 8 18 18 17.6 136.8 935 70 5 Image Chart
1979 8 19 00 18.3 136.2 930 90 5 Image Chart
1979 8 19 06 19.1 135.6 925 95 5 Image Chart
1979 8 19 12 19.8 135.0 920 100 5 Image Chart
1979 8 19 18 20.5 134.4 915 105 5 Image Chart
1979 8 20 00 21.3 133.8 910 110 5 Image Chart
1979 8 20 06 22.2 133.2 910 110 5 Image Chart
1979 8 20 12 22.6 132.6 925 110 5 Image Chart
1979 8 20 18 23.0 131.8 935 100 5 Image Chart
1979 8 21 00 23.4 130.9 940 100 5 Image Chart
1979 8 21 06 23.8 130.5 945 95 5 Image Chart
1979 8 21 12 24.2 129.7 945 95 5 Image Chart
1979 8 21 18 24.2 128.8 945 95 5 Image Chart
1979 8 22 00 24.3 128.0 950 80 5 Image Chart
1979 8 22 06 24.3 127.3 950 80 5 Image Chart
1979 8 22 12 24.5 126.9 950 80 5 Image Chart
1979 8 22 18 25.0 126.3 945 90 5 Image Chart
1979 8 23 00 26.0 125.6 945 90 5 Image Chart
1979 8 23 06 26.8 124.5 950 80 5 Image Chart
1979 8 23 12 27.3 123.8 950 80 5 Image Chart
1979 8 23 18 27.9 123.2 950 80 5 Image Chart
1979 8 24 00 28.8 122.7 960 70 5 Image Chart
1979 8 24 06 29.3 122.4 960 70 5 Image Chart
1979 8 24 12 29.9 122.3 965 65 5 Image Chart
1979 8 24 18 30.4 122.6 970 60 4 Image Chart
1979 8 25 00 30.8 123.0 970 60 4 Image Chart
1979 8 25 06 31.5 123.6 975 50 4 Image Chart
1979 8 25 12 32.0 124.2 980 50 4 Image Chart
1979 8 25 18 32.5 125.1 985 45 3 Image Chart
1979 8 26 00 33.1 126.2 990 45 3 Image Chart
1979 8 26 06 33.8 127.6 990 45 3 Image Chart
1979 8 26 12 34.4 128.9 994 0 2 Image Chart
1979 8 26 18 35.3 131.1 994 0 2 Image Chart
Japan Meteorological Agency Best Track Data | Correction Date : 1992-10-21
< Typhoon 197910 1979 Season Typhoon 197912 >

Help